createdAt,value
2023-02-20T00:00:40.674Z,65.24
2023-02-20T00:03:08.026Z,64.71
2023-02-20T00:05:35.805Z,64.06
2023-02-20T00:08:03.095Z,63.73
2023-02-20T00:10:30.277Z,63.45
2023-02-20T00:12:57.656Z,64.10
2023-02-20T00:15:25.178Z,64.30
2023-02-20T00:17:53.171Z,63.78
2023-02-20T00:20:23.439Z,64.36
2023-02-20T00:22:51.962Z,65.13
2023-02-20T00:25:20.591Z,66.95
2023-02-20T00:27:48.571Z,69.25
2023-02-20T00:30:21.290Z,70.18
2023-02-20T00:32:50.255Z,71.34
2023-02-20T00:35:18.408Z,71.45
2023-02-20T00:37:49.560Z,72.18
2023-02-20T00:40:19.556Z,72.04
2023-02-20T00:42:47.372Z,72.37
2023-02-20T00:45:16.346Z,72.96
2023-02-20T00:47:43.639Z,72.73
2023-02-20T00:50:13.180Z,73.02
2023-02-20T00:52:40.699Z,72.21
2023-02-20T00:55:08.465Z,72.08
2023-02-20T00:57:35.692Z,72.65
2023-02-20T01:00:03.047Z,73.72
2023-02-20T01:02:31.075Z,73.62
2023-02-20T01:04:58.281Z,74.04
2023-02-20T01:07:25.512Z,74.49
2023-02-20T01:09:52.652Z,75.68
2023-02-20T01:12:19.985Z,76.58
2023-02-20T01:14:47.422Z,76.54
2023-02-20T01:17:15.257Z,76.27
2023-02-20T01:19:44.460Z,76.00
2023-02-20T01:22:12.037Z,76.37
2023-02-20T01:24:39.450Z,77.34
2023-02-20T01:27:06.840Z,76.81
2023-02-20T01:29:34.030Z,76.52
2023-02-20T01:32:01.214Z,77.04
2023-02-20T01:34:28.816Z,78.12
2023-02-20T01:36:56.742Z,77.72
2023-02-20T01:39:28.580Z,79.33
2023-02-20T01:42:00.327Z,79.85
2023-02-20T01:44:31.006Z,80.27
2023-02-20T01:47:01.188Z,79.40
2023-02-20T01:49:55.142Z,79.17
2023-02-20T01:52:26.885Z,78.12
2023-02-20T01:55:02.097Z,77.70
2023-02-20T01:57:33.271Z,77.21
2023-02-20T02:00:10.194Z,76.56
2023-02-20T02:02:48.653Z,75.96
2023-02-20T02:05:17.512Z,75.93
2023-02-20T02:07:45.536Z,75.14
2023-02-20T02:10:29.419Z,75.44
2023-02-20T02:12:59.153Z,74.81
2023-02-20T02:15:27.029Z,74.30
2023-02-20T02:18:18.067Z,73.75
2023-02-20T02:21:44.010Z,73.21
2023-02-20T02:24:29.494Z,72.58
2023-02-20T02:27:21.598Z,72.61
2023-02-20T02:30:10.061Z,73.26
2023-02-20T02:32:49.599Z,72.31
2023-02-20T02:35:35.466Z,72.06
2023-02-20T02:38:16.480Z,71.14
2023-02-20T02:41:03.260Z,67.02
2023-02-20T02:43:54.308Z,64.20
2023-02-20T02:46:44.631Z,64.48
2023-02-20T02:49:11.950Z,64.46
2023-02-20T02:51:45.848Z,65.28
2023-02-20T02:54:22.710Z,65.64
2023-02-20T02:56:50.166Z,66.02
2023-02-20T02:59:30.595Z,66.86
2023-02-20T03:02:03.790Z,67.06
2023-02-20T03:04:33.349Z,67.79
2023-02-20T03:07:09.628Z,68.09
2023-02-20T03:09:47.215Z,67.85
2023-02-20T03:12:16.827Z,68.40
2023-02-20T03:15:09.541Z,68.17
2023-02-20T03:17:43.744Z,68.61
2023-02-20T03:20:15.335Z,69.01
2023-02-20T03:22:57.440Z,68.72
2023-02-20T03:25:42.233Z,68.56
2023-02-20T03:28:15.948Z,66.72
2023-02-20T03:31:05.205Z,66.29
2023-02-20T03:33:57.904Z,63.95
2023-02-20T03:36:52.097Z,63.44
2023-02-20T03:39:44.336Z,63.54
2023-02-20T03:42:34.758Z,63.70
2023-02-20T03:45:10.962Z,63.22
2023-02-20T03:47:44.679Z,63.51
2023-02-20T03:50:14.751Z,63.81
2023-02-20T03:52:43.277Z,63.97
2023-02-20T03:55:11.097Z,64.39
2023-02-20T03:57:44.330Z,64.29
2023-02-20T04:00:25.451Z,64.87
2023-02-20T04:02:58.103Z,65.13
2023-02-20T04:05:34.535Z,65.39
2023-02-20T04:08:05.643Z,65.46
2023-02-20T04:10:42.136Z,65.76
2023-02-20T04:13:11.396Z,65.71
2023-02-20T04:15:38.986Z,65.96
2023-02-20T04:18:12.658Z,65.85
2023-02-20T04:20:41.600Z,65.76
2023-02-20T04:23:43.668Z,66.05
2023-02-20T04:26:15.845Z,65.90
2023-02-20T04:28:45.494Z,66.18
2023-02-20T04:31:17.873Z,66.17
2023-02-20T04:33:46.641Z,66.10
2023-02-20T04:36:18.981Z,65.89
2023-02-20T04:38:46.622Z,66.49
2023-02-20T04:41:17.309Z,66.52
2023-02-20T04:43:45.432Z,66.92
2023-02-20T04:46:13.313Z,67.02
2023-02-20T04:48:41.148Z,67.12
2023-02-20T04:51:09.360Z,67.20
2023-02-20T04:53:36.920Z,66.83
2023-02-20T04:56:04.867Z,66.52
2023-02-20T04:58:37.078Z,66.35
2023-02-20T05:01:13.751Z,66.37
2023-02-20T05:03:40.989Z,66.04
2023-02-20T05:06:08.168Z,65.04
2023-02-20T05:08:35.608Z,64.71
2023-02-20T05:11:03.182Z,64.38
2023-02-20T05:13:30.601Z,64.63
2023-02-20T05:15:57.867Z,64.58
2023-02-20T05:18:27.191Z,64.27
2023-02-20T05:21:12.771Z,63.66
2023-02-20T05:23:40.466Z,63.39
2023-02-20T05:26:12.672Z,62.99
2023-02-20T05:28:40.267Z,62.81
2023-02-20T05:31:07.505Z,63.69
2023-02-20T05:33:34.937Z,63.60
2023-02-20T05:36:02.260Z,64.02
2023-02-20T05:38:29.511Z,63.88
2023-02-20T05:40:56.587Z,63.83
2023-02-20T05:43:23.877Z,63.31
2023-02-20T05:45:51.731Z,63.35
2023-02-20T05:48:19.032Z,65.01
2023-02-20T05:50:46.497Z,67.11
2023-02-20T05:53:18.146Z,67.08
2023-02-20T05:55:45.920Z,66.97
2023-02-20T05:58:13.250Z,66.62
2023-02-20T06:00:40.978Z,66.31
2023-02-20T06:03:10.310Z,64.85
2023-02-20T06:05:37.930Z,64.80
2023-02-20T06:08:05.980Z,65.60
2023-02-20T06:10:33.852Z,64.91
2023-02-20T06:13:01.658Z,65.28
2023-02-20T06:15:29.190Z,65.48
2023-02-20T06:17:56.697Z,65.67
2023-02-20T06:20:24.100Z,65.94
2023-02-20T06:22:51.787Z,65.92
2023-02-20T06:25:19.182Z,65.73
2023-02-20T06:27:46.527Z,65.60
2023-02-20T06:30:14.830Z,65.56
2023-02-20T06:32:42.822Z,64.94
2023-02-20T06:35:13.209Z,64.93
2023-02-20T06:37:41.573Z,65.27
2023-02-20T06:40:09.639Z,65.17
2023-02-20T06:42:37.056Z,64.60
2023-02-20T06:45:04.779Z,65.03
2023-02-20T06:47:32.638Z,63.46
2023-02-20T06:50:00.133Z,62.75
2023-02-20T06:52:27.590Z,62.80
2023-02-20T06:54:54.908Z,61.82
2023-02-20T06:57:22.821Z,61.33
2023-02-20T06:59:50.127Z,60.56
2023-02-20T07:02:18.287Z,59.95
2023-02-20T07:04:49.894Z,59.10
2023-02-20T07:07:17.128Z,59.05
2023-02-20T07:09:44.792Z,59.03
2023-02-20T07:12:12.477Z,59.33
2023-02-20T07:14:40.131Z,58.75
2023-02-20T07:17:07.390Z,58.62
2023-02-20T07:19:34.520Z,58.08
2023-02-20T07:22:02.244Z,57.45
2023-02-20T07:24:29.550Z,56.68
2023-02-20T07:29:22.852Z,54.94
2023-02-20T07:31:50.207Z,54.82
2023-02-20T07:34:17.637Z,54.22
2023-02-20T07:36:45.126Z,54.19
2023-02-20T07:39:13.978Z,54.21
2023-02-20T07:41:41.847Z,53.66
2023-02-20T07:44:29.188Z,52.21
2023-02-20T07:46:56.412Z,50.46
2023-02-20T07:49:23.666Z,49.04
2023-02-20T07:51:50.933Z,47.68
2023-02-20T07:54:18.563Z,47.84
2023-02-20T07:56:45.730Z,47.74
2023-02-20T07:59:13.102Z,46.84
2023-02-20T08:01:40.502Z,47.52
2023-02-20T08:04:08.247Z,47.49
2023-02-20T08:06:35.797Z,47.00
2023-02-20T08:09:03.293Z,46.32
2023-02-20T08:11:34.737Z,44.26
2023-02-20T08:14:02.969Z,44.20
2023-02-20T08:16:30.448Z,44.01
2023-02-20T08:18:58.055Z,42.63
2023-02-20T08:21:25.821Z,42.56
2023-02-20T08:23:52.924Z,42.48
2023-02-20T08:26:20.348Z,42.45
2023-02-20T08:28:49.228Z,42.46
2023-02-20T08:31:30.858Z,41.26
2023-02-20T08:33:59.281Z,41.36
2023-02-20T08:36:26.830Z,41.87
2023-02-20T08:38:55.493Z,41.75
2023-02-20T08:41:22.715Z,41.59
2023-02-20T08:43:50.156Z,40.72
2023-02-20T08:46:17.592Z,40.63
2023-02-20T08:48:45.531Z,39.80
2023-02-20T08:51:12.944Z,39.84
2023-02-20T08:53:40.760Z,40.02
2023-02-20T08:56:08.530Z,40.37
2023-02-20T08:58:35.862Z,40.06
2023-02-20T09:01:04.062Z,40.70
2023-02-20T09:03:31.994Z,40.10
2023-02-20T09:05:59.585Z,39.86
2023-02-20T09:08:27.071Z,38.74
2023-02-20T09:10:54.989Z,38.52
2023-02-20T09:13:22.369Z,38.74
2023-02-20T09:15:49.654Z,39.14
2023-02-20T09:18:17.442Z,39.35
2023-02-20T09:20:44.842Z,39.82
2023-02-20T09:23:12.156Z,39.48
2023-02-20T09:25:39.360Z,39.44
2023-02-20T09:28:06.659Z,39.37
2023-02-20T09:30:34.570Z,39.44
2023-02-20T09:33:02.059Z,38.58
2023-02-20T09:35:31.315Z,39.39
2023-02-20T09:37:59.096Z,38.66
2023-02-20T09:40:28.658Z,39.02
2023-02-20T09:43:19.585Z,39.54
2023-02-20T09:46:15.885Z,39.43
2023-02-20T09:49:02.326Z,39.14
2023-02-20T09:51:33.495Z,39.42
2023-02-20T09:54:10.074Z,39.52
2023-02-20T09:56:49.822Z,39.41
2023-02-20T09:59:21.248Z,39.26
2023-02-20T10:02:38.175Z,39.95
2023-02-20T10:05:27.357Z,39.99
2023-02-20T10:07:54.826Z,38.50
2023-02-20T10:10:29.838Z,39.74
2023-02-20T10:12:56.887Z,38.17
2023-02-20T10:15:32.191Z,37.01
2023-02-20T10:18:24.464Z,37.84
2023-02-20T10:21:03.943Z,36.87
2023-02-20T10:24:04.893Z,36.91
2023-02-20T10:26:37.625Z,36.25
2023-02-20T10:29:18.595Z,36.36
2023-02-20T10:31:58.367Z,35.55
2023-02-20T10:34:39.912Z,35.34
2023-02-20T10:37:14.317Z,34.53
2023-02-20T10:39:49.878Z,33.34
2023-02-20T10:42:31.208Z,32.54
2023-02-20T10:45:31.249Z,32.28
2023-02-20T10:48:06.990Z,32.46
2023-02-20T10:50:41.989Z,31.82
2023-02-20T10:53:33.742Z,30.98
2023-02-20T10:56:26.276Z,30.17
2023-02-20T10:59:08.773Z,31.59
2023-02-20T11:01:37.602Z,31.67
2023-02-20T11:04:11.037Z,30.66
2023-02-20T11:06:56.417Z,30.20
2023-02-20T11:09:24.143Z,30.91
2023-02-20T11:11:53.888Z,29.66
2023-02-20T11:14:40.109Z,30.41
2023-02-20T11:17:21.440Z,30.48
2023-02-20T11:19:51.136Z,29.05
2023-02-20T11:22:19.600Z,29.70
2023-02-20T11:24:47.432Z,30.26
2023-02-20T11:27:23.431Z,29.38
2023-02-20T11:30:03.443Z,30.22
2023-02-20T11:32:38.702Z,29.72
2023-02-20T11:35:18.243Z,29.78
2023-02-20T11:38:17.361Z,29.94
2023-02-20T11:41:29.273Z,30.49
2023-02-20T11:44:14.701Z,30.66
2023-02-20T11:46:42.280Z,29.98
2023-02-20T11:49:28.439Z,30.48
2023-02-20T11:52:17.072Z,30.51
2023-02-20T11:54:46.285Z,30.35
2023-02-20T11:57:16.650Z,30.94
2023-02-20T11:59:47.361Z,31.10
2023-02-20T12:02:17.786Z,31.52
2023-02-20T12:05:00.956Z,31.63
2023-02-20T12:07:34.453Z,31.81
2023-02-20T12:10:29.361Z,32.03
2023-02-20T12:12:56.633Z,32.61
2023-02-20T12:15:26.961Z,33.53
2023-02-20T12:18:00.260Z,34.20
2023-02-20T12:20:30.244Z,34.73
2023-02-20T12:23:22.235Z,34.63
2023-02-20T12:26:15.873Z,34.53
2023-02-20T12:29:29.585Z,34.92
2023-02-20T12:32:13.673Z,34.74
2023-02-20T12:34:53.573Z,34.68
2023-02-20T12:37:51.084Z,34.97
2023-02-20T12:40:33.512Z,35.99
2023-02-20T12:43:23.899Z,35.64
2023-02-20T12:45:57.013Z,36.12
2023-02-20T12:48:43.103Z,36.52
2023-02-20T12:51:23.718Z,35.93
2023-02-20T12:54:01.308Z,36.31
2023-02-20T12:56:43.305Z,37.06
2023-02-20T12:59:29.682Z,36.90
2023-02-20T13:02:06.782Z,36.47
2023-02-20T13:04:45.652Z,37.19
2023-02-20T13:07:24.733Z,37.40
2023-02-20T13:09:59.911Z,37.88
2023-02-20T13:12:27.100Z,37.96
2023-02-20T13:15:03.444Z,37.81
2023-02-20T13:17:45.869Z,38.20
2023-02-20T13:20:40.262Z,38.38
2023-02-20T13:23:16.362Z,38.19
2023-02-20T13:25:51.251Z,38.70
2023-02-20T13:28:21.314Z,38.07
2023-02-20T13:31:07.396Z,38.28
2023-02-20T13:33:37.370Z,39.06
2023-02-20T13:36:19.435Z,38.62
2023-02-20T13:39:21.772Z,38.77
2023-02-20T13:41:55.327Z,38.77
2023-02-20T13:44:30.797Z,39.02
2023-02-20T13:47:02.891Z,39.21
2023-02-20T13:49:45.257Z,39.13
2023-02-20T13:52:37.121Z,39.02
2023-02-20T13:55:10.804Z,39.11
2023-02-20T13:57:54.872Z,39.13
2023-02-20T14:00:21.958Z,39.19
2023-02-20T14:02:49.563Z,39.15
2023-02-20T14:05:26.494Z,38.88
2023-02-20T14:07:54.203Z,39.38
2023-02-20T14:10:29.913Z,39.43
2023-02-20T14:13:39.088Z,39.94
2023-02-20T14:16:26.850Z,39.96
2023-02-20T14:19:00.969Z,39.85
2023-02-20T14:21:30.119Z,39.59
2023-02-20T14:24:11.064Z,40.19
2023-02-20T14:26:38.192Z,40.43
2023-02-20T14:29:21.275Z,40.40
2023-02-20T14:31:52.318Z,40.87
2023-02-20T14:34:50.239Z,40.71
2023-02-20T14:37:30.418Z,40.81
2023-02-20T14:40:14.616Z,41.26
2023-02-20T14:42:47.191Z,41.09
2023-02-20T14:45:19.479Z,41.49
2023-02-20T14:47:59.044Z,41.47
2023-02-20T14:50:33.560Z,42.08
2023-02-20T14:53:21.449Z,41.94
2023-02-20T14:55:52.011Z,42.31
2023-02-20T14:58:23.486Z,42.30
2023-02-20T15:00:53.254Z,42.39
2023-02-20T15:03:30.967Z,43.10
2023-02-20T15:06:06.881Z,43.15
2023-02-20T15:08:38.018Z,43.47
2023-02-20T15:11:12.144Z,44.06
2023-02-20T15:13:43.351Z,44.10
2023-02-20T15:16:26.585Z,44.29
2023-02-20T15:18:55.155Z,44.69
2023-02-20T15:21:40.970Z,44.73
2023-02-20T15:24:16.560Z,45.28
2023-02-20T15:26:45.256Z,45.41
2023-02-20T15:29:18.720Z,45.33
2023-02-20T15:31:47.181Z,45.68
2023-02-20T15:34:25.359Z,45.97
2023-02-20T15:36:52.676Z,46.32
2023-02-20T15:39:20.670Z,46.48
2023-02-20T15:41:48.766Z,47.02
2023-02-20T15:44:17.022Z,47.18
2023-02-20T15:46:44.258Z,47.26
2023-02-20T15:49:19.343Z,46.63
2023-02-20T15:51:52.256Z,46.73
2023-02-20T15:54:21.867Z,46.72
2023-02-20T15:56:49.211Z,47.14
2023-02-20T15:59:16.909Z,47.20
2023-02-20T16:01:44.312Z,47.48
2023-02-20T16:04:16.005Z,47.59
2023-02-20T16:06:43.756Z,48.07
2023-02-20T16:09:12.095Z,48.39
2023-02-20T16:11:46.523Z,48.16
2023-02-20T16:14:16.999Z,48.87
2023-02-20T16:16:46.543Z,48.78
2023-02-20T16:19:20.276Z,48.81
2023-02-20T16:21:58.651Z,49.33
2023-02-20T16:24:26.683Z,49.14
2023-02-20T16:26:54.660Z,49.17
2023-02-20T16:29:42.181Z,48.78
2023-02-20T16:32:16.510Z,49.83
2023-02-20T16:34:45.882Z,49.31
2023-02-20T16:37:14.418Z,50.81
2023-02-20T16:39:41.993Z,50.71
2023-02-20T16:42:22.790Z,50.78
2023-02-20T16:44:50.493Z,51.36
2023-02-20T16:47:20.693Z,52.15
2023-02-20T16:49:52.304Z,52.34
2023-02-20T16:52:42.812Z,52.22
2023-02-20T16:55:29.657Z,53.28
2023-02-20T16:57:57.346Z,53.24
2023-02-20T17:00:30.429Z,53.91
2023-02-20T17:02:58.408Z,54.19
2023-02-20T17:05:28.721Z,54.60
2023-02-20T17:07:59.648Z,54.73
2023-02-20T17:10:27.683Z,54.28
2023-02-20T17:12:55.902Z,54.03
2023-02-20T17:15:24.905Z,54.05
2023-02-20T17:17:53.402Z,53.26
2023-02-20T17:20:25.526Z,53.02
2023-02-20T17:23:04.025Z,53.62
2023-02-20T17:25:33.858Z,52.89
2023-02-20T17:28:01.301Z,53.33
2023-02-20T17:30:29.866Z,52.39
2023-02-20T17:32:57.070Z,52.24
2023-02-20T17:35:24.486Z,52.33
2023-02-20T17:37:51.728Z,51.72
2023-02-20T17:40:19.243Z,51.71
2023-02-20T17:42:46.471Z,51.64
2023-02-20T17:45:15.505Z,51.02
2023-02-20T17:47:42.860Z,51.43
2023-02-20T17:50:10.260Z,59.64
2023-02-20T17:52:37.791Z,52.17
2023-02-20T17:55:05.299Z,52.07
2023-02-20T17:57:33.287Z,51.59
2023-02-20T18:00:00.730Z,51.03
2023-02-20T18:02:27.992Z,50.43
2023-02-20T18:04:55.114Z,50.39
2023-02-20T18:07:22.749Z,50.46
2023-02-20T18:09:50.194Z,50.63
2023-02-20T18:12:17.700Z,50.61
2023-02-20T18:14:45.698Z,51.21
2023-02-20T18:17:12.990Z,51.58
2023-02-20T18:19:40.446Z,51.83
2023-02-20T18:22:07.657Z,51.92
2023-02-20T18:24:35.177Z,52.19
2023-02-20T18:27:02.484Z,51.97
2023-02-20T18:29:30.261Z,52.57
2023-02-20T18:31:58.501Z,52.99
2023-02-20T18:34:27.579Z,53.21
2023-02-20T18:36:55.478Z,52.84
2023-02-20T18:39:23.240Z,54.14
2023-02-20T18:41:55.819Z,52.92
2023-02-20T18:44:23.787Z,52.72
2023-02-20T18:46:51.771Z,52.79
2023-02-20T18:49:19.384Z,53.00
2023-02-20T18:51:47.005Z,53.14
2023-02-20T18:54:24.933Z,53.24
2023-02-20T18:56:53.228Z,54.35
2023-02-20T18:59:23.140Z,54.03
2023-02-20T19:01:50.815Z,53.78
2023-02-20T19:04:18.260Z,53.77
2023-02-20T19:06:46.823Z,54.12
2023-02-20T19:09:23.275Z,53.88
2023-02-20T19:11:55.250Z,54.63
2023-02-20T19:14:26.276Z,54.62
2023-02-20T19:16:56.993Z,54.91
2023-02-20T19:19:27.387Z,54.62
2023-02-20T19:21:55.520Z,55.05
2023-02-20T19:24:23.364Z,55.77
2023-02-20T19:26:52.010Z,56.81
2023-02-20T19:29:19.712Z,57.02
2023-02-20T19:31:47.192Z,57.07
2023-02-20T19:34:15.608Z,56.47
2023-02-20T19:36:43.816Z,58.62
2023-02-20T19:39:12.398Z,56.80
2023-02-20T19:41:39.748Z,56.22
2023-02-20T19:44:08.234Z,56.93
2023-02-20T19:46:35.709Z,56.57
2023-02-20T19:49:09.933Z,56.48
2023-02-20T19:51:37.189Z,57.61
2023-02-20T19:54:04.501Z,58.91
2023-02-20T19:56:31.723Z,59.67
2023-02-20T19:58:58.819Z,58.83
2023-02-20T20:01:26.029Z,59.23
2023-02-20T20:03:53.256Z,58.82
2023-02-20T20:06:26.190Z,58.64
2023-02-20T20:09:10.426Z,58.34
2023-02-20T20:11:38.672Z,58.33
2023-02-20T20:14:05.934Z,58.25
2023-02-20T20:16:35.391Z,57.93
2023-02-20T20:19:02.667Z,57.63
2023-02-20T20:21:29.939Z,57.71
2023-02-20T20:23:57.714Z,57.55
2023-02-20T20:26:30.397Z,63.41
2023-02-20T20:28:58.416Z,59.02
2023-02-20T20:31:27.514Z,58.32
2023-02-20T20:33:55.225Z,58.38
2023-02-20T20:36:22.632Z,57.49
2023-02-20T20:38:49.889Z,57.69
2023-02-20T20:41:17.160Z,57.78
2023-02-20T20:43:46.352Z,57.69
2023-02-20T20:46:15.469Z,57.63
2023-02-20T20:48:44.239Z,58.99
2023-02-20T20:51:13.272Z,58.54
2023-02-20T20:53:40.659Z,58.29
2023-02-20T20:56:08.956Z,58.15
2023-02-20T20:58:36.437Z,58.10
2023-02-20T21:01:04.128Z,57.96
2023-02-20T21:03:31.264Z,57.75
2023-02-20T21:05:58.514Z,57.69
2023-02-20T21:08:25.706Z,57.55
2023-02-20T21:10:53.203Z,57.90
2023-02-20T21:13:20.623Z,57.69
2023-02-20T21:15:48.602Z,58.31
2023-02-20T21:18:15.951Z,60.48
2023-02-20T21:20:43.373Z,60.33
2023-02-20T21:23:11.160Z,60.70
2023-02-20T21:25:38.772Z,60.41
2023-02-20T21:28:06.060Z,60.38
2023-02-20T21:30:33.440Z,60.09
2023-02-20T21:33:00.572Z,60.14
2023-02-20T21:35:27.799Z,60.17
2023-02-20T21:37:55.156Z,60.82
2023-02-20T21:40:22.333Z,61.28
2023-02-20T21:43:08.212Z,61.68
2023-02-20T21:45:36.572Z,62.13
2023-02-20T21:48:05.496Z,62.06
2023-02-20T21:50:33.080Z,62.11
2023-02-20T21:53:00.797Z,62.59
2023-02-20T21:55:28.921Z,62.42
2023-02-20T21:57:56.634Z,62.82
2023-02-20T22:00:24.253Z,63.06
2023-02-20T22:02:51.587Z,63.05
2023-02-20T22:05:18.810Z,63.17
2023-02-20T22:08:04.349Z,63.38
2023-02-20T22:10:50.233Z,63.44
2023-02-20T22:13:35.829Z,63.44
2023-02-20T22:16:21.554Z,63.64
2023-02-20T22:19:07.879Z,63.60
2023-02-20T22:21:53.474Z,63.32
2023-02-20T22:24:39.489Z,63.21
2023-02-20T22:27:27.589Z,63.45
2023-02-20T22:30:14.292Z,63.65
2023-02-20T22:33:00.154Z,63.73
2023-02-20T22:35:46.457Z,63.12
2023-02-20T22:38:32.298Z,63.36
2023-02-20T22:41:18.004Z,62.77
2023-02-20T22:44:03.570Z,62.43
2023-02-20T22:46:49.328Z,62.27
2023-02-20T22:49:35.094Z,62.13
2023-02-20T22:52:20.668Z,61.70
2023-02-20T22:55:06.622Z,61.76
2023-02-20T22:57:53.383Z,61.33
2023-02-20T23:00:39.674Z,61.30
2023-02-20T23:03:44.476Z,61.42
2023-02-20T23:06:30.161Z,61.21
2023-02-20T23:09:15.754Z,60.97
2023-02-20T23:12:01.270Z,60.67
2023-02-20T23:14:47.037Z,60.32
2023-02-20T23:17:36.974Z,60.05
2023-02-20T23:20:30.262Z,60.62
2023-02-20T23:23:16.882Z,60.40
2023-02-20T23:26:03.294Z,60.25
2023-02-20T23:28:49.611Z,60.25
2023-02-20T23:31:36.820Z,59.98
2023-02-20T23:34:23.042Z,59.45
2023-02-20T23:37:11.589Z,59.00
2023-02-20T23:39:57.539Z,59.20
2023-02-20T23:42:43.357Z,58.64
2023-02-20T23:45:29.508Z,58.63
2023-02-20T23:48:15.246Z,58.29
2023-02-20T23:51:00.900Z,57.81
2023-02-20T23:53:46.541Z,58.08
2023-02-20T23:56:32.728Z,58.08
2023-02-20T23:59:18.241Z,57.62
